European Causeway — C6RG7 — position and weather

sailwx.info

Track history (hours):
 
Tides and Currents Weather Stations Pressure Air Temp Water Temp Dewpoint Dewpoint Depression Visibility Wind Speed Wind Dir Waves Ship Positions

European Causeway

Operator: P & O Irish Sea

Last reported at 2018-Aug-14 14:27 UTC. Time now 2018-Aug-14 15:20 UTC.
Position N 54°58' W 005°01'.

Length 145 m; draft 5.5 m.

Type: Passenger vessel. MMSI: 311027000.

Date/timePositionNaut miles runAvg speedWind from/ knotsBaromVisibWave heightAir tempDewpointWater temp
2018-Aug-14 14:27N 54°58' W 005°01'613.8
2018-Aug-14 14:00N 55°01' W 005°10'918.9
2018-Aug-14 13:30N 54°57' W 005°24'918.3
2018-Aug-14 13:00N 54°53' W 005°39'610.8
2018-Aug-14 12:28N 54°51' W 005°48'0 0.0
2018-Aug-14 12:00N 54°51' W 005°48'0 0.0
2018-Aug-14 11:31N 54°51' W 005°48'612.1
2018-Aug-14 11:00N 54°54' W 005°39'917.8
2018-Aug-14 10:30N 54°59' W 005°26'1018.3
2018-Aug-14 09:58N 55°02' W 005°10'6 9.6
2018-Aug-14 09:18N 54°58' W 005°01'0 0.0
2018-Aug-14 08:47N 54°58' W 005°01'0 0.3
2018-Aug-14 08:28N 54°58' W 005°01'610.7
2018-Aug-14 07:57N 55°02' W 005°08'817.4
2018-Aug-14 07:30N 54°58' W 005°20'918.5
2018-Aug-14 07:00N 54°55' W 005°35'816.4
2018-Aug-14 06:31N 54°51' W 005°48'0 0.2
2018-Aug-14 05:49N 54°51' W 005°48'0 0.0
2018-Aug-14 05:10N 54°51' W 005°48'0 0.0
2018-Aug-14 04:56N 54°51' W 005°48'3 8.1
2018-Aug-14 04:30N 54°53' W 005°43'918.5
2018-Aug-14 04:00N 54°57' W 005°29'917.4
2018-Aug-14 03:29N 55°01' W 005°14'714.5
2018-Aug-14 03:00N 54°59' W 005°03'1 0.7
2018-Aug-14 00:56N 54°58' W 005°01'712.6
2018-Aug-14 00:22N 55°02' W 005°10'616.8
2018-Aug-14 00:01N 54°59' W 005°19'918.3
2018-Aug-13 23:31N 54°55' W 005°33'918.0
2018-Aug-13 23:00N 54°51' W 005°48'0 0.6
2018-Aug-13 22:23N 54°51' W 005°48'0 0.0
2018-Aug-13 21:56N 54°51' W 005°48'0 0.0
2018-Aug-13 21:20N 54°51' W 005°48'0 0.0
2018-Aug-13 20:59N 54°51' W 005°48'510.0
2018-Aug-13 20:27N 54°54' W 005°40'817.9
2018-Aug-13 20:00N 54°57' W 005°27'918.5
2018-Aug-13 19:30N 55°01' W 005°13'612.9
2018-Aug-13 19:01N 54°59' W 005°02'1 2.6
2018-Aug-13 18:30N 54°58' W 005°01'0 0.0
2018-Aug-13 17:45N 54°58' W 005°01'0 0.0
2018-Aug-13 17:29N 54°58' W 005°01'6 9.4
2018-Aug-13 16:53N 55°02' W 005°08'820.2
2018-Aug-13 16:30N 54°58' W 005°20'1019.8
2018-Aug-13 16:00N 54°54' W 005°36'815.4
2018-Aug-13 15:31N 54°51' W 005°48'0 0.2
2018-Aug-13 15:00N 54°51' W 005°48'0 0.0
2018-Aug-13 14:30N 54°51' W 005°48'3 6.4
2018-Aug-13 14:00N 54°53' W 005°43'1019.0
2018-Aug-13 13:30N 54°57' W 005°28'918.3
2018-Aug-13 13:00N 55°01' W 005°14'713.8
2018-Aug-13 12:30N 54°59' W 005°03'2 3.1
2018-Aug-13 12:00N 54°58' W 005°01'0 0.0
2018-Aug-13 11:30N 54°58' W 005°01'611.4
2018-Aug-13 10:56N 55°01' W 005°10'717.5
2018-Aug-13 10:30N 54°58' W 005°21'918.4
2018-Aug-13 10:00N 54°54' W 005°36'815.1
2018-Aug-13 09:30N 54°51' W 005°48'0 0.1
2018-Aug-13 09:00N 54°51' W 005°48'0 0.0
2018-Aug-13 08:30N 54°51' W 005°48'4 8.0
2018-Aug-13 08:00N 54°53' W 005°42'917.8
2018-Aug-13 07:30N 54°57' W 005°28'918.0
2018-Aug-13 07:00N 55°01' W 005°14'714.0
2018-Aug-13 06:30N 54°59' W 005°02'1 2.0
2018-Aug-13 05:55N 54°58' W 005°01'0 0.0
2018-Aug-13 05:30N 54°58' W 005°01'0 0.4
2018-Aug-13 04:53N 54°58' W 005°01'512.4
2018-Aug-13 04:26N 55°02' W 005°08'920.1
2018-Aug-13 04:00N 54°58' W 005°22'1019.6
2018-Aug-13 03:30N 54°54' W 005°37'713.5
2018-Aug-13 03:00N 54°51' W 005°48'0 0.1
2018-Aug-13 02:26N 54°51' W 005°48'0 0.0
2018-Aug-13 01:59N 54°51' W 005°48'0 0.0
2018-Aug-13 01:23N 54°51' W 005°48'0 0.0
2018-Aug-13 01:00N 54°51' W 005°48'913.4
2018-Aug-13 00:20N 54°55' W 005°35'618.3
2018-Aug-13 00:00N 54°58' W 005°25'14 4.6
2018-Aug-12 21:02N 54°58' W 005°01'0 0.8
2018-Aug-12 20:57N 54°58' W 005°01'714.1
2018-Aug-12 20:27N 55°02' W 005°10'817.4
2018-Aug-12 20:00N 54°58' W 005°22'917.5
2018-Aug-12 19:30N 54°54' W 005°35'815.6
2018-Aug-12 19:00N 54°51' W 005°48'0 0.2
2018-Aug-12 18:30N 54°51' W 005°48'0 0.0
2018-Aug-12 18:00N 54°51' W 005°48'2 2.7
2018-Aug-12 17:24N 54°52' W 005°47'819.7
2018-Aug-12 16:59N 54°56' W 005°34'1020.0
2018-Aug-12 16:30N 55°02' W 005°20'1116.2
2018-Aug-12 15:49N 54°59' W 005°03'1 0.7
2018-Aug-12 14:19N 54°58' W 005°01'614.3
2018-Aug-12 13:56N 55°02' W 005°09'921.2
2018-Aug-12 13:30N 54°57' W 005°23'1020.0
2018-Aug-12 13:00N 54°53' W 005°39'611.7
2018-Aug-12 12:30N 54°51' W 005°48'0 0.0
2018-Aug-12 12:00N 54°51' W 005°48'0 0.0
2018-Aug-12 11:30N 54°51' W 005°48'5 9.6
2018-Aug-12 10:59N 54°54' W 005°41'919.1
2018-Aug-12 10:31N 54°57' W 005°26'1415.3
2018-Aug-12 09:37N 54°59' W 005°03'1 1.4
2018-Aug-12 08:37N 54°58' W 005°01'0 0.4
2018-Aug-12 08:27N 54°58' W 005°01'512.0
2018-Aug-12 08:00N 55°02' W 005°08'1019.3
2018-Aug-12 07:30N 54°58' W 005°23'1120.8
2018-Aug-12 07:00N 54°53' W 005°40'510.9
2018-Aug-12 06:30N 54°51' W 005°48'0 0.0
2018-Aug-12 05:42N 54°51' W 005°48'0 0.0
2018-Aug-12 05:27N 54°51' W 005°48'0 0.0
2018-Aug-12 04:57N 54°51' W 005°48'0 0.0
2018-Aug-12 04:27N 54°51' W 005°48'0 0.0
2018-Aug-12 03:57N 54°51' W 005°48'0 0.0
2018-Aug-12 03:30N 54°51' W 005°48'0 0.0
2018-Aug-12 02:57N 54°51' W 005°48'0 0.0
2018-Aug-12 02:27N 54°51' W 005°48'0 0.0
2018-Aug-12 02:00N 54°51' W 005°48'0 0.0
2018-Aug-12 01:27N 54°51' W 005°48'0 0.0
2018-Aug-12 01:00N 54°51' W 005°48'0 0.0
2018-Aug-12 00:21N 54°51' W 005°48'0 0.0
2018-Aug-11 23:57N 54°51' W 005°48'0 0.0
2018-Aug-11 23:30N 54°51' W 005°48'0 0.0
2018-Aug-11 22:57N 54°51' W 005°48'0 0.0
2018-Aug-11 22:27N 54°51' W 005°48'0 0.0
2018-Aug-11 21:51N 54°51' W 005°48'0 0.0
2018-Aug-11 21:27N 54°51' W 005°48'0 0.0
2018-Aug-11 20:57N 54°51' W 005°48'3 6.5
2018-Aug-11 20:30N 54°53' W 005°44'918.1
2018-Aug-11 20:00N 54°56' W 005°30'1018.6
2018-Aug-11 19:30N 55°01' W 005°15'713.7
2018-Aug-11 18:58N 54°59' W 005°02'1 2.4
2018-Aug-11 18:23N 54°58' W 005°01'0 0.0
2018-Aug-11 17:49N 54°58' W 005°01'0 0.0
2018-Aug-11 17:30N 54°58' W 005°01'6 9.3
2018-Aug-11 16:54N 55°02' W 005°08'819.8
2018-Aug-11 16:30N 54°58' W 005°20'1020.5
2018-Aug-11 16:00N 54°54' W 005°37'713.9
2018-Aug-11 15:30N 54°51' W 005°48'0 0.0
2018-Aug-11 15:00N 54°51' W 005°48'0 0.0
2018-Aug-11 14:30N 54°51' W 005°48'4 9.0
2018-Aug-11 14:00N 54°53' W 005°41'918.2
2018-Aug-11 13:30N 54°58' W 005°27'1017.5
2018-Aug-11 12:57N 55°01' W 005°12'714.7
2018-Aug-11 12:29N 54°58' W 005°02'1 0.7
2018-Aug-11 11:11N 54°59' W 005°03'415.7
2018-Aug-11 10:55N 55°02' W 005°08'718.3
2018-Aug-11 10:30N 54°58' W 005°20'918.5
2018-Aug-11 10:00N 54°55' W 005°35'816.7
2018-Aug-11 09:30N 54°51' W 005°48'0 0.2
2018-Aug-11 09:01N 54°51' W 005°48'0 0.0
2018-Aug-11 08:30N 54°51' W 005°48'612.1
2018-Aug-11 08:00N 54°54' W 005°39'917.4
2018-Aug-11 07:30N 54°58' W 005°25'916.3
2018-Aug-11 06:57N 55°01' W 005°11'613.4
2018-Aug-11 06:30N 54°58' W 005°02'1 0.5
2018-Aug-11 05:12N 54°58' W 005°01'0 0.1
2018-Aug-11 04:56N 54°58' W 005°01'610.7
2018-Aug-11 04:24N 55°02' W 005°08'717.7
2018-Aug-11 04:00N 54°58' W 005°19'918.3
2018-Aug-11 03:30N 54°55' W 005°34'917.1
2018-Aug-11 02:59N 54°51' W 005°48'0 0.3
2018-Aug-11 02:27N 54°51' W 005°48'0 0.0
2018-Aug-11 02:00N 54°51' W 005°48'0 0.0
2018-Aug-11 01:30N 54°51' W 005°48'0 0.0
2018-Aug-11 01:01N 54°51' W 005°48'510.6
2018-Aug-11 00:31N 54°54' W 005°40'917.9
2018-Aug-11 00:00N 54°58' W 005°27'917.4
2018-Aug-10 23:30N 55°01' W 005°13'7 2.7
2018-Aug-10 20:47N 54°58' W 005°01'614.8
2018-Aug-10 20:21N 55°01' W 005°11'617.4
2018-Aug-10 20:00N 54°58' W 005°20'1018.7
2018-Aug-10 19:29N 54°54' W 005°35'816.7
2018-Aug-10 19:00N 54°51' W 005°48'0 0.2
2018-Aug-10 18:31N 54°51' W 005°48'0 0.0
2018-Aug-10 18:00N 54°51' W 005°48'0 0.1
2018-Aug-10 17:30N 54°51' W 005°48'815.5
2018-Aug-10 16:58N 54°55' W 005°35'920.1
2018-Aug-10 16:30N 54°59' W 005°21'1114.9
2018-Aug-10 15:48N 54°59' W 005°03'1 2.4
2018-Aug-10 15:12N 54°58' W 005°01'0 0.0
2018-Aug-10 14:55N 54°58' W 005°01'0 0.0
2018-Aug-10 14:31N 54°58' W 005°01'6 8.9
2018-Aug-10 13:53N 55°02' W 005°08'821.1
2018-Aug-10 13:30N 54°58' W 005°20'1020.7
2018-Aug-10 13:00N 54°54' W 005°37'714.5
2018-Aug-10 12:31N 54°51' W 005°48'0 0.1
2018-Aug-10 12:01N 54°51' W 005°48'0 0.0
2018-Aug-10 11:31N 54°51' W 005°48'612.2
2018-Aug-10 11:00N 54°54' W 005°39'919.0
2018-Aug-10 10:31N 54°58' W 005°24'1214.6
2018-Aug-10 09:40N 54°59' W 005°03'1 0.9
2018-Aug-10 08:14N 54°58' W 005°01'712.5
2018-Aug-10 07:42N 55°01' W 005°11'317.2
2018-Aug-10 07:31N 54°60' W 005°16'918.2
2018-Aug-10 07:00N 54°56' W 005°30'1019.3
2018-Aug-10 06:28N 54°52' W 005°47'1 1.8
2018-Aug-10 05:56N 54°51' W 005°48'0 0.0
2018-Aug-10 05:29N 54°51' W 005°48'0 0.0
2018-Aug-10 04:59N 54°51' W 005°48'510.3
2018-Aug-10 04:31N 54°53' W 005°41'917.7
2018-Aug-10 03:59N 54°58' W 005°26'1017.7
2018-Aug-10 03:24N 55°02' W 005°09'614.5
2018-Aug-10 03:00N 54°58' W 005°01'0 0.2
2018-Aug-10 01:01N 54°58' W 005°01'0 0.3
2018-Aug-10 00:55N 54°58' W 005°01'611.5
2018-Aug-10 00:25N 55°02' W 005°08'819.1
2018-Aug-10 00:00N 54°58' W 005°20'918.4
2018-Aug-09 23:30N 54°55' W 005°35'816.2
2018-Aug-09 23:00N 54°51' W 005°48'0 0.3
2018-Aug-09 22:30N 54°51' W 005°48'0 0.0
2018-Aug-09 22:00N 54°51' W 005°48'0 0.0
2018-Aug-09 21:30N 54°51' W 005°48'0 0.0
2018-Aug-09 20:56N 54°51' W 005°48'4 8.2
2018-Aug-09 20:30N 54°53' W 005°43'918.2
2018-Aug-09 20:00N 54°57' W 005°29'917.6
2018-Aug-09 19:30N 55°01' W 005°15'714.3
2018-Aug-09 19:00N 54°59' W 005°03'2 3.4
2018-Aug-09 18:30N 54°58' W 005°01'0 0.0
2018-Aug-09 18:00N 54°58' W 005°01'0 0.0
2018-Aug-09 17:29N 54°58' W 005°01'610.3
2018-Aug-09 16:56N 55°02' W 005°08'919.8
2018-Aug-09 16:30N 54°58' W 005°21'1020.8
2018-Aug-09 16:00N 54°54' W 005°38'612.6
2018-Aug-09 15:30N 54°51' W 005°48'0 0.0
2018-Aug-09 15:00N 54°51' W 005°48'0 0.0
2018-Aug-09 14:27N 54°51' W 005°48'612.9
2018-Aug-09 13:58N 54°54' W 005°38'920.4
2018-Aug-09 13:30N 54°58' W 005°24'1216.1
2018-Aug-09 12:44N 54°59' W 005°03'1 3.6
2018-Aug-09 12:21N 54°58' W 005°01'0 0.0
2018-Aug-09 11:45N 54°58' W 005°01'0 0.0
2018-Aug-09 11:23N 54°58' W 005°01'610.1
2018-Aug-09 10:46N 55°02' W 005°10'721.6
2018-Aug-09 10:27N 54°58' W 005°20'921.1
2018-Aug-09 10:00N 54°54' W 005°35'816.3
2018-Aug-09 09:30N 54°51' W 005°48'0 0.2
2018-Aug-09 09:00N 54°51' W 005°48'0 0.0
2018-Aug-09 08:30N 54°51' W 005°48'510.6
2018-Aug-09 08:00N 54°54' W 005°40'1120.0
2018-Aug-09 07:27N 54°59' W 005°23'1215.8
2018-Aug-09 06:43N 54°59' W 005°02'1 2.7
2018-Aug-09 06:13N 54°58' W 005°01'0 0.0
2018-Aug-09 05:58N 54°58' W 005°01'0 0.0
2018-Aug-09 05:20N 54°58' W 005°01'0 0.1
2018-Aug-09 04:56N 54°58' W 005°01'711.5
2018-Aug-09 04:22N 55°02' W 005°10'617.6
2018-Aug-09 04:00N 54°58' W 005°20'918.8
2018-Aug-09 03:30N 54°55' W 005°35'816.5
2018-Aug-09 03:01N 54°51' W 005°48'0 0.2
2018-Aug-09 02:28N 54°51' W 005°48'0 0.0
2018-Aug-09 01:52N 54°51' W 005°48'0 0.0
2018-Aug-09 01:19N 54°51' W 005°48'0 0.0
2018-Aug-09 01:01N 54°51' W 005°48'611.5
2018-Aug-09 00:30N 54°54' W 005°39'917.9
2018-Aug-09 00:00N 54°58' W 005°25'917.2
2018-Aug-08 23:30N 55°01' W 005°12'714.1
2018-Aug-08 23:00N 54°58' W 005°01'0 0.0
2018-Aug-08 21:00N 54°58' W 005°01'610.9
2018-Aug-08 20:27N 55°02' W 005°09'818.3
2018-Aug-08 20:00N 54°57' W 005°21'919.0
2018-Aug-08 19:30N 54°53' W 005°36'713.7
2018-Aug-08 18:58N 54°51' W 005°48'0 0.0
2018-Aug-08 18:30N 54°51' W 005°48'0 0.0
2018-Aug-08 18:00N 54°51' W 005°48'0 0.0
2018-Aug-08 17:30N 54°51' W 005°48'912.9
2018-Aug-08 16:50N 54°55' W 005°35'618.5
2018-Aug-08 16:30N 54°58' W 005°25'918.9
2018-Aug-08 16:00N 55°02' W 005°10'713.2
2018-Aug-08 15:30N 54°58' W 005°01'0 0.3
2018-Aug-08 14:50N 54°58' W 005°01'0 0.0
2018-Aug-08 14:30N 54°58' W 005°01'6 9.5
2018-Aug-08 13:53N 55°02' W 005°09'820.4
2018-Aug-08 13:30N 54°58' W 005°20'1020.4
2018-Aug-08 13:00N 54°54' W 005°37'714.3
2018-Aug-08 12:30N 54°51' W 005°48'0 0.1
2018-Aug-08 11:59N 54°51' W 005°48'0 0.0
2018-Aug-08 11:29N 54°51' W 005°48'816.6
2018-Aug-08 10:59N 54°55' W 005°36'1019.8
2018-Aug-08 10:29N 54°59' W 005°20'1014.8
2018-Aug-08 09:48N 54°59' W 005°02'1 0.8
2018-Aug-08 08:13N 54°58' W 005°01'614.9
2018-Aug-08 07:50N 55°02' W 005°08'618.5
2018-Aug-08 07:30N 54°59' W 005°18'919.2
2018-Aug-08 07:00N 54°55' W 005°33'917.4
2018-Aug-08 06:28N 54°51' W 005°48'0 0.2
2018-Aug-08 06:00N 54°51' W 005°48'0 0.0
2018-Aug-08 05:30N 54°51' W 005°48'0 0.0
2018-Aug-08 05:00N 54°51' W 005°48'510.2
2018-Aug-08 04:30N 54°54' W 005°40'917.8
2018-Aug-08 04:00N 54°58' W 005°27'918.3
2018-Aug-08 03:30N 55°01' W 005°12'612.5
2018-Aug-08 03:00N 54°58' W 005°02'1 1.8
2018-Aug-08 02:30N 54°58' W 005°01'0 0.0
2018-Aug-08 02:00N 54°58' W 005°01'0 0.0
2018-Aug-08 01:21N 54°58' W 005°01'0 0.0
2018-Aug-08 01:00N 54°58' W 005°01'5 9.1
2018-Aug-08 00:25N 55°02' W 005°07'820.6
2018-Aug-08 00:00N 54°58' W 005°21'1020.5
2018-Aug-07 23:30N 54°54' W 005°37'713.6
2018-Aug-07 23:00N 54°51' W 005°48'0 0.0
2018-Aug-07 22:30N 54°51' W 005°48'0 0.0
2018-Aug-07 22:00N 54°51' W 005°48'0 0.0
2018-Aug-07 21:30N 54°51' W 005°48'0 0.0
2018-Aug-07 21:00N 54°51' W 005°48'510.6
2018-Aug-07 20:30N 54°54' W 005°40'917.9
2018-Aug-07 20:00N 54°58' W 005°26'917.9
2018-Aug-07 19:30N 55°01' W 005°12'713.9
2018-Aug-07 19:01N 54°58' W 005°01'0 0.1
2018-Aug-07 17:25N 54°58' W 005°01'612.1
2018-Aug-07 16:55N 55°01' W 005°10'919.9
2018-Aug-07 16:29N 54°57' W 005°23'1020.8
2018-Aug-07 16:01N 54°54' W 005°39'611.4
2018-Aug-07 15:31N 54°51' W 005°48'0 0.0
2018-Aug-07 15:00N 54°51' W 005°48'0 0.0
2018-Aug-07 14:30N 54°51' W 005°48'813.7
2018-Aug-07 13:53N 54°56' W 005°36'718.2
2018-Aug-07 13:30N 54°58' W 005°25'1314.5
2018-Aug-07 12:38N 54°59' W 005°02'1 1.3
2018-Aug-07 11:33N 54°58' W 005°01'0 0.0
2018-Aug-07 11:27N 54°58' W 005°01'610.8
2018-Aug-07 10:55N 55°02' W 005°09'819.6
2018-Aug-07 10:29N 54°58' W 005°22'1019.0
2018-Aug-07 09:58N 54°54' W 005°38'714.5
2018-Aug-07 09:30N 54°51' W 005°48'0 0.1
2018-Aug-07 08:59N 54°51' W 005°48'0 0.0
2018-Aug-07 08:30N 54°51' W 005°48'912.5
2018-Aug-07 07:49N 54°55' W 005°35'619.8
2018-Aug-07 07:30N 54°58' W 005°25'1119.6
2018-Aug-07 06:58N 55°02' W 005°08'6 9.4
2018-Aug-07 06:20N 54°58' W 005°01'0 0.0
2018-Aug-07 05:22N 54°58' W 005°01'0 0.1
2018-Aug-07 04:58N 54°58' W 005°01'610.9
2018-Aug-07 04:26N 55°02' W 005°08'817.8
2018-Aug-07 04:00N 54°58' W 005°20'1018.9
2018-Aug-07 03:28N 54°55' W 005°37'715.7
2018-Aug-07 03:00N 54°51' W 005°48'0 0.1
2018-Aug-07 02:30N 54°51' W 005°48'0 0.0
2018-Aug-07 02:00N 54°51' W 005°48'0 0.0
2018-Aug-07 01:30N 54°51' W 005°48'0 0.0
2018-Aug-07 01:00N 54°51' W 005°48'4 7.2
2018-Aug-07 00:29N 54°53' W 005°43'816.9
2018-Aug-07 00:00N 54°57' W 005°30'816.8
2018-Aug-06 23:30N 55°00' W 005°17'813.8
2018-Aug-06 22:54N 54°59' W 005°03'2 3.8
2018-Aug-06 22:30N 54°58' W 005°01'0 0.0
2018-Aug-06 21:55N 54°58' W 005°01'0 0.0
2018-Aug-06 21:30N 54°58' W 005°01'0 0.0
2018-Aug-06 20:58N 54°58' W 005°01'611.2
2018-Aug-06 20:28N 55°02' W 005°08'918.8
2018-Aug-06 20:00N 54°58' W 005°22'918.0
2018-Aug-06 19:30N 54°54' W 005°37'714.8
2018-Aug-06 19:01N 54°51' W 005°48'0 0.1
2018-Aug-06 18:28N 54°51' W 005°48'0 0.0
2018-Aug-06 17:59N 54°51' W 005°48'0 0.0
2018-Aug-06 17:30N 54°51' W 005°48'713.4
2018-Aug-06 17:00N 54°54' W 005°38'1018.9
2018-Aug-06 16:30N 54°58' W 005°23'1215.1
2018-Aug-06 15:43N 54°59' W 005°02'1 1.1
2018-Aug-06 14:27N 54°58' W 005°01'611.4
2018-Aug-06 13:58N 55°01' W 005°08'919.7
2018-Aug-06 13:30N 54°58' W 005°22'1020.1
2018-Aug-06 12:59N 54°54' W 005°39'612.0
2018-Aug-06 12:31N 54°51' W 005°48'0 0.0
2018-Aug-06 11:25N 54°51' W 005°48'712.0
2018-Aug-06 10:52N 54°54' W 005°38'15 4.8
2018-Aug-06 07:45N 54°60' W 005°14'2118.5
2018-Aug-06 06:36N 54°51' W 005°48'0 1.1
2018-Aug-06 06:29N 54°51' W 005°48'0 0.0
2018-Aug-06 05:59N 54°51' W 005°48'0 0.0
2018-Aug-06 05:30N 54°51' W 005°48'0 0.0
2018-Aug-06 05:00N 54°51' W 005°48'2014.7
2018-Aug-06 03:37N 55°00' W 005°16'4 1.1
2018-Aug-06 00:19N 55°01' W 005°10'718.5
2018-Aug-05 23:58N 54°58' W 005°20'1717.4
2018-Aug-05 22:58N 54°51' W 005°48'0 0.3
2018-Aug-05 22:27N 54°51' W 005°48'0 0.0
2018-Aug-05 22:00N 54°51' W 005°48'0 0.0
2018-Aug-05 21:31N 54°51' W 005°48'0 0.0
2018-Aug-05 20:59N 54°51' W 005°48'1213.2
2018-Aug-05 20:02N 54°57' W 005°29'217.1
2018-Aug-05 19:54N 54°58' W 005°25'6 2.0
2018-Aug-05 16:45N 55°00' W 005°15'520.3
2018-Aug-05 16:30N 54°58' W 005°23'1619.0
2018-Aug-05 15:40N 54°51' W 005°48'0 1.8
2018-Aug-05 15:31N 54°51' W 005°48'0 0.0
2018-Aug-05 15:00N 54°51' W 005°48'6 5.9
2018-Aug-05 14:00N 54°54' W 005°39'1419.2
2018-Aug-05 13:16N 54°60' W 005°17'7 3.3
2018-Aug-05 11:05N 55°01' W 005°05'515.9
2018-Aug-05 10:46N 55°00' W 005°13'518.7
2018-Aug-05 10:30N 54°58' W 005°21'1018.4
2018-Aug-05 09:56N 54°54' W 005°38'615.3
2018-Aug-05 09:31N 54°51' W 005°48'0 0.1
2018-Aug-05 08:42N 54°51' W 005°48'0 0.0
2018-Aug-05 08:27N 54°51' W 005°48'4 7.9
2018-Aug-05 07:57N 54°53' W 005°42'918.8
2018-Aug-05 07:30N 54°57' W 005°29'918.3
2018-Aug-05 07:00N 55°01' W 005°15'814.5
2018-Aug-05 06:28N 54°58' W 005°02'1 1.1
2018-Aug-05 05:59N 54°58' W 005°01'0 0.0
2018-Aug-05 05:27N 54°58' W 005°01'0 0.0
2018-Aug-05 04:51N 54°58' W 005°01'0 0.0
2018-Aug-05 04:25N 54°58' W 005°01'0 0.0
2018-Aug-05 03:43N 54°58' W 005°01'0 0.0
2018-Aug-05 02:56N 54°58' W 005°01'0 0.0
2018-Aug-05 02:05N 54°58' W 005°01'0 0.0
2018-Aug-05 01:41N 54°58' W 005°01'0 0.0
2018-Aug-05 01:29N 54°58' W 005°01'0 0.0
2018-Aug-05 00:56N 54°58' W 005°01'0 0.0
2018-Aug-04 22:28N 54°58' W 005°01'0 0.0
2018-Aug-04 21:59N 54°58' W 005°01'0 0.0
2018-Aug-04 21:22N 54°58' W 005°01'7 7.1
2018-Aug-04 20:24N 55°01' W 005°11'921.3
2018-Aug-04 20:00N 54°57' W 005°25'1020.3
2018-Aug-04 19:31N 54°54' W 005°41'5 9.3
2018-Aug-04 18:59N 54°51' W 005°48'0 0.0
2018-Aug-04 18:17N 54°51' W 005°48'0 0.0
2018-Aug-04 17:59N 54°51' W 005°48'0 0.0
2018-Aug-04 17:29N 54°51' W 005°48'3 6.7
2018-Aug-04 17:00N 54°53' W 005°43'1019.2
2018-Aug-04 16:29N 54°57' W 005°28'  
Track history (hours):
 
Tides and Currents Weather Stations Pressure Air Temp Water Temp Dewpoint Dewpoint Depression Visibility Wind Speed Wind Dir Waves Ship Positions

European Causeway

Operator: P & O Irish Sea

Last reported at 2018-Aug-14 14:27 UTC. Time now 2018-Aug-14 15:20 UTC.
Position N 54°58' W 005°01'.

Length 145 m; draft 5.5 m.

Type: Passenger vessel. MMSI: 311027000.

Date/timePositionNaut miles runAvg speedWind from/ knotsBaromVisibWave heightAir tempDewpointWater temp
2018-Aug-14 14:27N 54°58' W 005°01'613.8
2018-Aug-14 14:00N 55°01' W 005°10'918.9
2018-Aug-14 13:30N 54°57' W 005°24'918.3
2018-Aug-14 13:00N 54°53' W 005°39'610.8
2018-Aug-14 12:28N 54°51' W 005°48'0 0.0
2018-Aug-14 12:00N 54°51' W 005°48'0 0.0
2018-Aug-14 11:31N 54°51' W 005°48'612.1
2018-Aug-14 11:00N 54°54' W 005°39'917.8
2018-Aug-14 10:30N 54°59' W 005°26'1018.3
2018-Aug-14 09:58N 55°02' W 005°10'6 9.6
2018-Aug-14 09:18N 54°58' W 005°01'0 0.0
2018-Aug-14 08:47N 54°58' W 005°01'0 0.3
2018-Aug-14 08:28N 54°58' W 005°01'610.7
2018-Aug-14 07:57N 55°02' W 005°08'817.4
2018-Aug-14 07:30N 54°58' W 005°20'918.5
2018-Aug-14 07:00N 54°55' W 005°35'816.4
2018-Aug-14 06:31N 54°51' W 005°48'0 0.2
2018-Aug-14 05:49N 54°51' W 005°48'0 0.0
2018-Aug-14 05:10N 54°51' W 005°48'0 0.0
2018-Aug-14 04:56N 54°51' W 005°48'3 8.1
2018-Aug-14 04:30N 54°53' W 005°43'918.5
2018-Aug-14 04:00N 54°57' W 005°29'917.4
2018-Aug-14 03:29N 55°01' W 005°14'714.5
2018-Aug-14 03:00N 54°59' W 005°03'1 0.7
2018-Aug-14 00:56N 54°58' W 005°01'712.6
2018-Aug-14 00:22N 55°02' W 005°10'616.8
2018-Aug-14 00:01N 54°59' W 005°19'918.3
2018-Aug-13 23:31N 54°55' W 005°33'918.0
2018-Aug-13 23:00N 54°51' W 005°48'0 0.6
2018-Aug-13 22:23N 54°51' W 005°48'0 0.0
2018-Aug-13 21:56N 54°51' W 005°48'0 0.0
2018-Aug-13 21:20N 54°51' W 005°48'0 0.0
2018-Aug-13 20:59N 54°51' W 005°48'510.0
2018-Aug-13 20:27N 54°54' W 005°40'817.9
2018-Aug-13 20:00N 54°57' W 005°27'918.5
2018-Aug-13 19:30N 55°01' W 005°13'612.9
2018-Aug-13 19:01N 54°59' W 005°02'1 2.6
2018-Aug-13 18:30N 54°58' W 005°01'0 0.0
2018-Aug-13 17:45N 54°58' W 005°01'0 0.0
2018-Aug-13 17:29N 54°58' W 005°01'6 9.4
2018-Aug-13 16:53N 55°02' W 005°08'820.2
2018-Aug-13 16:30N 54°58' W 005°20'1019.8
2018-Aug-13 16:00N 54°54' W 005°36'815.4
2018-Aug-13 15:31N 54°51' W 005°48'0 0.2
2018-Aug-13 15:00N 54°51' W 005°48'0 0.0
2018-Aug-13 14:30N 54°51' W 005°48'3 6.4
2018-Aug-13 14:00N 54°53' W 005°43'1019.0
2018-Aug-13 13:30N 54°57' W 005°28'918.3
2018-Aug-13 13:00N 55°01' W 005°14'713.8
2018-Aug-13 12:30N 54°59' W 005°03'2 3.1
2018-Aug-13 12:00N 54°58' W 005°01'0 0.0
2018-Aug-13 11:30N 54°58' W 005°01'611.4
2018-Aug-13 10:56N 55°01' W 005°10'717.5
2018-Aug-13 10:30N 54°58' W 005°21'918.4
2018-Aug-13 10:00N 54°54' W 005°36'815.1
2018-Aug-13 09:30N 54°51' W 005°48'0 0.1
2018-Aug-13 09:00N 54°51' W 005°48'0 0.0
2018-Aug-13 08:30N 54°51' W 005°48'4 8.0
2018-Aug-13 08:00N 54°53' W 005°42'917.8
2018-Aug-13 07:30N 54°57' W 005°28'918.0
2018-Aug-13 07:00N 55°01' W 005°14'714.0
2018-Aug-13 06:30N 54°59' W 005°02'1 2.0
2018-Aug-13 05:55N 54°58' W 005°01'0 0.0
2018-Aug-13 05:30N 54°58' W 005°01'0 0.4
2018-Aug-13 04:53N 54°58' W 005°01'512.4
2018-Aug-13 04:26N 55°02' W 005°08'920.1
2018-Aug-13 04:00N 54°58' W 005°22'1019.6
2018-Aug-13 03:30N 54°54' W 005°37'713.5
2018-Aug-13 03:00N 54°51' W 005°48'0 0.1
2018-Aug-13 02:26N 54°51' W 005°48'0 0.0
2018-Aug-13 01:59N 54°51' W 005°48'0 0.0
2018-Aug-13 01:23N 54°51' W 005°48'0 0.0
2018-Aug-13 01:00N 54°51' W 005°48'913.4
2018-Aug-13 00:20N 54°55' W 005°35'618.3
2018-Aug-13 00:00N 54°58' W 005°25'14 4.6
2018-Aug-12 21:02N 54°58' W 005°01'0 0.8
2018-Aug-12 20:57N 54°58' W 005°01'714.1
2018-Aug-12 20:27N 55°02' W 005°10'817.4
2018-Aug-12 20:00N 54°58' W 005°22'917.5
2018-Aug-12 19:30N 54°54' W 005°35'815.6
2018-Aug-12 19:00N 54°51' W 005°48'0 0.2
2018-Aug-12 18:30N 54°51' W 005°48'0 0.0
2018-Aug-12 18:00N 54°51' W 005°48'2 2.7
2018-Aug-12 17:24N 54°52' W 005°47'819.7
2018-Aug-12 16:59N 54°56' W 005°34'1020.0
2018-Aug-12 16:30N 55°02' W 005°20'1116.2
2018-Aug-12 15:49N 54°59' W 005°03'1 0.7
2018-Aug-12 14:19N 54°58' W 005°01'614.3
2018-Aug-12 13:56N 55°02' W 005°09'921.2
2018-Aug-12 13:30N 54°57' W 005°23'1020.0
2018-Aug-12 13:00N 54°53' W 005°39'611.7
2018-Aug-12 12:30N 54°51' W 005°48'0 0.0
2018-Aug-12 12:00N 54°51' W 005°48'0 0.0
2018-Aug-12 11:30N 54°51' W 005°48'5 9.6
2018-Aug-12 10:59N 54°54' W 005°41'919.1
2018-Aug-12 10:31N 54°57' W 005°26'1415.3
2018-Aug-12 09:37N 54°59' W 005°03'1 1.4
2018-Aug-12 08:37N 54°58' W 005°01'0 0.4
2018-Aug-12 08:27N 54°58' W 005°01'512.0
2018-Aug-12 08:00N 55°02' W 005°08'1019.3
2018-Aug-12 07:30N 54°58' W 005°23'1120.8
2018-Aug-12 07:00N 54°53' W 005°40'510.9
2018-Aug-12 06:30N 54°51' W 005°48'0 0.0
2018-Aug-12 05:42N 54°51' W 005°48'0 0.0
2018-Aug-12 05:27N 54°51' W 005°48'0 0.0
2018-Aug-12 04:57N 54°51' W 005°48'0 0.0
2018-Aug-12 04:27N 54°51' W 005°48'0 0.0
2018-Aug-12 03:57N 54°51' W 005°48'0 0.0
2018-Aug-12 03:30N 54°51' W 005°48'0 0.0
2018-Aug-12 02:57N 54°51' W 005°48'0 0.0
2018-Aug-12 02:27N 54°51' W 005°48'0 0.0
2018-Aug-12 02:00N 54°51' W 005°48'0 0.0
2018-Aug-12 01:27N 54°51' W 005°48'0 0.0
2018-Aug-12 01:00N 54°51' W 005°48'0 0.0
2018-Aug-12 00:21N 54°51' W 005°48'0 0.0
2018-Aug-11 23:57N 54°51' W 005°48'0 0.0
2018-Aug-11 23:30N 54°51' W 005°48'0 0.0
2018-Aug-11 22:57N 54°51' W 005°48'0 0.0
2018-Aug-11 22:27N 54°51' W 005°48'0 0.0
2018-Aug-11 21:51N 54°51' W 005°48'0 0.0
2018-Aug-11 21:27N 54°51' W 005°48'0 0.0
2018-Aug-11 20:57N 54°51' W 005°48'3 6.5
2018-Aug-11 20:30N 54°53' W 005°44'918.1
2018-Aug-11 20:00N 54°56' W 005°30'1018.6
2018-Aug-11 19:30N 55°01' W 005°15'713.7
2018-Aug-11 18:58N 54°59' W 005°02'1 2.4
2018-Aug-11 18:23N 54°58' W 005°01'0 0.0
2018-Aug-11 17:49N 54°58' W 005°01'0 0.0
2018-Aug-11 17:30N 54°58' W 005°01'6 9.3
2018-Aug-11 16:54N 55°02' W 005°08'819.8
2018-Aug-11 16:30N 54°58' W 005°20'1020.5
2018-Aug-11 16:00N 54°54' W 005°37'713.9
2018-Aug-11 15:30N 54°51' W 005°48'0 0.0
2018-Aug-11 15:00N 54°51' W 005°48'0 0.0
2018-Aug-11 14:30N 54°51' W 005°48'4 9.0
2018-Aug-11 14:00N 54°53' W 005°41'918.2
2018-Aug-11 13:30N 54°58' W 005°27'1017.5
2018-Aug-11 12:57N 55°01' W 005°12'714.7
2018-Aug-11 12:29N 54°58' W 005°02'1 0.7
2018-Aug-11 11:11N 54°59' W 005°03'415.7
2018-Aug-11 10:55N 55°02' W 005°08'718.3
2018-Aug-11 10:30N 54°58' W 005°20'918.5
2018-Aug-11 10:00N 54°55' W 005°35'816.7
2018-Aug-11 09:30N 54°51' W 005°48'0 0.2
2018-Aug-11 09:01N 54°51' W 005°48'0 0.0
2018-Aug-11 08:30N 54°51' W 005°48'612.1
2018-Aug-11 08:00N 54°54' W 005°39'917.4
2018-Aug-11 07:30N 54°58' W 005°25'916.3
2018-Aug-11 06:57N 55°01' W 005°11'613.4
2018-Aug-11 06:30N 54°58' W 005°02'1 0.5
2018-Aug-11 05:12N 54°58' W 005°01'0 0.1
2018-Aug-11 04:56N 54°58' W 005°01'610.7
2018-Aug-11 04:24N 55°02' W 005°08'717.7
2018-Aug-11 04:00N 54°58' W 005°19'918.3
2018-Aug-11 03:30N 54°55' W 005°34'917.1
2018-Aug-11 02:59N 54°51' W 005°48'0 0.3
2018-Aug-11 02:27N 54°51' W 005°48'0 0.0
2018-Aug-11 02:00N 54°51' W 005°48'0 0.0
2018-Aug-11 01:30N 54°51' W 005°48'0 0.0
2018-Aug-11 01:01N 54°51' W 005°48'510.6
2018-Aug-11 00:31N 54°54' W 005°40'917.9
2018-Aug-11 00:00N 54°58' W 005°27'917.4
2018-Aug-10 23:30N 55°01' W 005°13'7 2.7
2018-Aug-10 20:47N 54°58' W 005°01'614.8
2018-Aug-10 20:21N 55°01' W 005°11'617.4
2018-Aug-10 20:00N 54°58' W 005°20'1018.7
2018-Aug-10 19:29N 54°54' W 005°35'816.7
2018-Aug-10 19:00N 54°51' W 005°48'0 0.2
2018-Aug-10 18:31N 54°51' W 005°48'0 0.0
2018-Aug-10 18:00N 54°51' W 005°48'0 0.1
2018-Aug-10 17:30N 54°51' W 005°48'815.5
2018-Aug-10 16:58N 54°55' W 005°35'920.1
2018-Aug-10 16:30N 54°59' W 005°21'1114.9
2018-Aug-10 15:48N 54°59' W 005°03'1 2.4
2018-Aug-10 15:12N 54°58' W 005°01'0 0.0
2018-Aug-10 14:55N 54°58' W 005°01'0 0.0
2018-Aug-10 14:31N 54°58' W 005°01'6 8.9
2018-Aug-10 13:53N 55°02' W 005°08'821.1
2018-Aug-10 13:30N 54°58' W 005°20'1020.7
2018-Aug-10 13:00N 54°54' W 005°37'714.5
2018-Aug-10 12:31N 54°51' W 005°48'0 0.1
2018-Aug-10 12:01N 54°51' W 005°48'0 0.0
2018-Aug-10 11:31N 54°51' W 005°48'612.2
2018-Aug-10 11:00N 54°54' W 005°39'919.0
2018-Aug-10 10:31N 54°58' W 005°24'1214.6
2018-Aug-10 09:40N 54°59' W 005°03'1 0.9
2018-Aug-10 08:14N 54°58' W 005°01'712.5
2018-Aug-10 07:42N 55°01' W 005°11'317.2
2018-Aug-10 07:31N 54°60' W 005°16'918.2
2018-Aug-10 07:00N 54°56' W 005°30'1019.3
2018-Aug-10 06:28N 54°52' W 005°47'1 1.8
2018-Aug-10 05:56N 54°51' W 005°48'0 0.0
2018-Aug-10 05:29N 54°51' W 005°48'0 0.0
2018-Aug-10 04:59N 54°51' W 005°48'510.3
2018-Aug-10 04:31N 54°53' W 005°41'917.7
2018-Aug-10 03:59N 54°58' W 005°26'1017.7
2018-Aug-10 03:24N 55°02' W 005°09'614.5
2018-Aug-10 03:00N 54°58' W 005°01'0 0.2
2018-Aug-10 01:01N 54°58' W 005°01'0 0.3
2018-Aug-10 00:55N 54°58' W 005°01'611.5
2018-Aug-10 00:25N 55°02' W 005°08'819.1
2018-Aug-10 00:00N 54°58' W 005°20'918.4
2018-Aug-09 23:30N 54°55' W 005°35'816.2
2018-Aug-09 23:00N 54°51' W 005°48'0 0.3
2018-Aug-09 22:30N 54°51' W 005°48'0 0.0
2018-Aug-09 22:00N 54°51' W 005°48'0 0.0
2018-Aug-09 21:30N 54°51' W 005°48'0 0.0
2018-Aug-09 20:56N 54°51' W 005°48'4 8.2
2018-Aug-09 20:30N 54°53' W 005°43'918.2
2018-Aug-09 20:00N 54°57' W 005°29'917.6
2018-Aug-09 19:30N 55°01' W 005°15'714.3
2018-Aug-09 19:00N 54°59' W 005°03'2 3.4
2018-Aug-09 18:30N 54°58' W 005°01'0 0.0
2018-Aug-09 18:00N 54°58' W 005°01'0 0.0
2018-Aug-09 17:29N 54°58' W 005°01'610.3
2018-Aug-09 16:56N 55°02' W 005°08'919.8
2018-Aug-09 16:30N 54°58' W 005°21'1020.8
2018-Aug-09 16:00N 54°54' W 005°38'612.6
2018-Aug-09 15:30N 54°51' W 005°48'0 0.0
2018-Aug-09 15:00N 54°51' W 005°48'0 0.0
2018-Aug-09 14:27N 54°51' W 005°48'612.9
2018-Aug-09 13:58N 54°54' W 005°38'920.4
2018-Aug-09 13:30N 54°58' W 005°24'1216.1
2018-Aug-09 12:44N 54°59' W 005°03'1 3.6
2018-Aug-09 12:21N 54°58' W 005°01'0 0.0
2018-Aug-09 11:45N 54°58' W 005°01'0 0.0
2018-Aug-09 11:23N 54°58' W 005°01'610.1
2018-Aug-09 10:46N 55°02' W 005°10'721.6
2018-Aug-09 10:27N 54°58' W 005°20'921.1
2018-Aug-09 10:00N 54°54' W 005°35'816.3
2018-Aug-09 09:30N 54°51' W 005°48'0 0.2
2018-Aug-09 09:00N 54°51' W 005°48'0 0.0
2018-Aug-09 08:30N 54°51' W 005°48'510.6
2018-Aug-09 08:00N 54°54' W 005°40'1120.0
2018-Aug-09 07:27N 54°59' W 005°23'1215.8
2018-Aug-09 06:43N 54°59' W 005°02'1 2.7
2018-Aug-09 06:13N 54°58' W 005°01'0 0.0
2018-Aug-09 05:58N 54°58' W 005°01'0 0.0
2018-Aug-09 05:20N 54°58' W 005°01'0 0.1
2018-Aug-09 04:56N 54°58' W 005°01'711.5
2018-Aug-09 04:22N 55°02' W 005°10'617.6
2018-Aug-09 04:00N 54°58' W 005°20'918.8
2018-Aug-09 03:30N 54°55' W 005°35'816.5
2018-Aug-09 03:01N 54°51' W 005°48'0 0.2
2018-Aug-09 02:28N 54°51' W 005°48'0 0.0
2018-Aug-09 01:52N 54°51' W 005°48'0 0.0
2018-Aug-09 01:19N 54°51' W 005°48'0 0.0
2018-Aug-09 01:01N 54°51' W 005°48'611.5
2018-Aug-09 00:30N 54°54' W 005°39'917.9
2018-Aug-09 00:00N 54°58' W 005°25'917.2
2018-Aug-08 23:30N 55°01' W 005°12'714.1
2018-Aug-08 23:00N 54°58' W 005°01'0 0.0
2018-Aug-08 21:00N 54°58' W 005°01'610.9
2018-Aug-08 20:27N 55°02' W 005°09'818.3
2018-Aug-08 20:00N 54°57' W 005°21'919.0
2018-Aug-08 19:30N 54°53' W 005°36'713.7
2018-Aug-08 18:58N 54°51' W 005°48'0 0.0
2018-Aug-08 18:30N 54°51' W 005°48'0 0.0
2018-Aug-08 18:00N 54°51' W 005°48'0 0.0
2018-Aug-08 17:30N 54°51' W 005°48'912.9
2018-Aug-08 16:50N 54°55' W 005°35'618.5
2018-Aug-08 16:30N 54°58' W 005°25'918.9
2018-Aug-08 16:00N 55°02' W 005°10'713.2
2018-Aug-08 15:30N 54°58' W 005°01'0 0.3
2018-Aug-08 14:50N 54°58' W 005°01'0 0.0
2018-Aug-08 14:30N 54°58' W 005°01'6 9.5
2018-Aug-08 13:53N 55°02' W 005°09'820.4
2018-Aug-08 13:30N 54°58' W 005°20'1020.4
2018-Aug-08 13:00N 54°54' W 005°37'714.3
2018-Aug-08 12:30N 54°51' W 005°48'0 0.1
2018-Aug-08 11:59N 54°51' W 005°48'0 0.0
2018-Aug-08 11:29N 54°51' W 005°48'816.6
2018-Aug-08 10:59N 54°55' W 005°36'1019.8
2018-Aug-08 10:29N 54°59' W 005°20'1014.8
2018-Aug-08 09:48N 54°59' W 005°02'1 0.8
2018-Aug-08 08:13N 54°58' W 005°01'614.9
2018-Aug-08 07:50N 55°02' W 005°08'618.5
2018-Aug-08 07:30N 54°59' W 005°18'919.2
2018-Aug-08 07:00N 54°55' W 005°33'917.4
2018-Aug-08 06:28N 54°51' W 005°48'0 0.2
2018-Aug-08 06:00N 54°51' W 005°48'0 0.0
2018-Aug-08 05:30N 54°51' W 005°48'0 0.0
2018-Aug-08 05:00N 54°51' W 005°48'510.2
2018-Aug-08 04:30N 54°54' W 005°40'917.8
2018-Aug-08 04:00N 54°58' W 005°27'918.3
2018-Aug-08 03:30N 55°01' W 005°12'612.5
2018-Aug-08 03:00N 54°58' W 005°02'1 1.8
2018-Aug-08 02:30N 54°58' W 005°01'0 0.0
2018-Aug-08 02:00N 54°58' W 005°01'0 0.0
2018-Aug-08 01:21N 54°58' W 005°01'0 0.0
2018-Aug-08 01:00N 54°58' W 005°01'5 9.1
2018-Aug-08 00:25N 55°02' W 005°07'820.6
2018-Aug-08 00:00N 54°58' W 005°21'1020.5
2018-Aug-07 23:30N 54°54' W 005°37'713.6
2018-Aug-07 23:00N 54°51' W 005°48'0 0.0
2018-Aug-07 22:30N 54°51' W 005°48'0 0.0
2018-Aug-07 22:00N 54°51' W 005°48'0 0.0
2018-Aug-07 21:30N 54°51' W 005°48'0 0.0
2018-Aug-07 21:00N 54°51' W 005°48'510.6
2018-Aug-07 20:30N 54°54' W 005°40'917.9
2018-Aug-07 20:00N 54°58' W 005°26'917.9
2018-Aug-07 19:30N 55°01' W 005°12'713.9
2018-Aug-07 19:01N 54°58' W 005°01'0 0.1
2018-Aug-07 17:25N 54°58' W 005°01'612.1
2018-Aug-07 16:55N 55°01' W 005°10'919.9
2018-Aug-07 16:29N 54°57' W 005°23'1020.8
2018-Aug-07 16:01N 54°54' W 005°39'611.4
2018-Aug-07 15:31N 54°51' W 005°48'0 0.0
2018-Aug-07 15:00N 54°51' W 005°48'0 0.0
2018-Aug-07 14:30N 54°51' W 005°48'813.7
2018-Aug-07 13:53N 54°56' W 005°36'718.2
2018-Aug-07 13:30N 54°58' W 005°25'1314.5
2018-Aug-07 12:38N 54°59' W 005°02'1 1.3
2018-Aug-07 11:33N 54°58' W 005°01'0 0.0
2018-Aug-07 11:27N 54°58' W 005°01'610.8
2018-Aug-07 10:55N 55°02' W 005°09'819.6
2018-Aug-07 10:29N 54°58' W 005°22'1019.0
2018-Aug-07 09:58N 54°54' W 005°38'714.5
2018-Aug-07 09:30N 54°51' W 005°48'0 0.1
2018-Aug-07 08:59N 54°51' W 005°48'0 0.0
2018-Aug-07 08:30N 54°51' W 005°48'912.5
2018-Aug-07 07:49N 54°55' W 005°35'619.8
2018-Aug-07 07:30N 54°58' W 005°25'1119.6
2018-Aug-07 06:58N 55°02' W 005°08'6 9.4
2018-Aug-07 06:20N 54°58' W 005°01'0 0.0
2018-Aug-07 05:22N 54°58' W 005°01'0 0.1
2018-Aug-07 04:58N 54°58' W 005°01'610.9
2018-Aug-07 04:26N 55°02' W 005°08'817.8
2018-Aug-07 04:00N 54°58' W 005°20'1018.9
2018-Aug-07 03:28N 54°55' W 005°37'715.7
2018-Aug-07 03:00N 54°51' W 005°48'0 0.1
2018-Aug-07 02:30N 54°51' W 005°48'0 0.0
2018-Aug-07 02:00N 54°51' W 005°48'0 0.0
2018-Aug-07 01:30N 54°51' W 005°48'0 0.0
2018-Aug-07 01:00N 54°51' W 005°48'4 7.2
2018-Aug-07 00:29N 54°53' W 005°43'816.9
2018-Aug-07 00:00N 54°57' W 005°30'816.8
2018-Aug-06 23:30N 55°00' W 005°17'813.8
2018-Aug-06 22:54N 54°59' W 005°03'2 3.8
2018-Aug-06 22:30N 54°58' W 005°01'0 0.0
2018-Aug-06 21:55N 54°58' W 005°01'0 0.0
2018-Aug-06 21:30N 54°58' W 005°01'0 0.0
2018-Aug-06 20:58N 54°58' W 005°01'611.2
2018-Aug-06 20:28N 55°02' W 005°08'918.8
2018-Aug-06 20:00N 54°58' W 005°22'918.0
2018-Aug-06 19:30N 54°54' W 005°37'714.8
2018-Aug-06 19:01N 54°51' W 005°48'0 0.1
2018-Aug-06 18:28N 54°51' W 005°48'0 0.0
2018-Aug-06 17:59N 54°51' W 005°48'0 0.0
2018-Aug-06 17:30N 54°51' W 005°48'713.4
2018-Aug-06 17:00N 54°54' W 005°38'1018.9
2018-Aug-06 16:30N 54°58' W 005°23'1215.1
2018-Aug-06 15:43N 54°59' W 005°02'1 1.1
2018-Aug-06 14:27N 54°58' W 005°01'611.4
2018-Aug-06 13:58N 55°01' W 005°08'919.7
2018-Aug-06 13:30N 54°58' W 005°22'1020.1
2018-Aug-06 12:59N 54°54' W 005°39'612.0
2018-Aug-06 12:31N 54°51' W 005°48'0 0.0
2018-Aug-06 11:25N 54°51' W 005°48'712.0
2018-Aug-06 10:52N 54°54' W 005°38'15 4.8
2018-Aug-06 07:45N 54°60' W 005°14'2118.5
2018-Aug-06 06:36N 54°51' W 005°48'0 1.1
2018-Aug-06 06:29N 54°51' W 005°48'0 0.0
2018-Aug-06 05:59N 54°51' W 005°48'0 0.0
2018-Aug-06 05:30N 54°51' W 005°48'0 0.0
2018-Aug-06 05:00N 54°51' W 005°48'2014.7
2018-Aug-06 03:37N 55°00' W 005°16'4 1.1
2018-Aug-06 00:19N 55°01' W 005°10'718.5
2018-Aug-05 23:58N 54°58' W 005°20'1717.4
2018-Aug-05 22:58N 54°51' W 005°48'0 0.3
2018-Aug-05 22:27N 54°51' W 005°48'0 0.0
2018-Aug-05 22:00N 54°51' W 005°48'0 0.0
2018-Aug-05 21:31N 54°51' W 005°48'0 0.0
2018-Aug-05 20:59N 54°51' W 005°48'1213.2
2018-Aug-05 20:02N 54°57' W 005°29'217.1
2018-Aug-05 19:54N 54°58' W 005°25'6 2.0
2018-Aug-05 16:45N 55°00' W 005°15'520.3
2018-Aug-05 16:30N 54°58' W 005°23'1619.0
2018-Aug-05 15:40N 54°51' W 005°48'0 1.8
2018-Aug-05 15:31N 54°51' W 005°48'0 0.0
2018-Aug-05 15:00N 54°51' W 005°48'6 5.9
2018-Aug-05 14:00N 54°54' W 005°39'1419.2
2018-Aug-05 13:16N 54°60' W 005°17'7 3.3
2018-Aug-05 11:05N 55°01' W 005°05'515.9
2018-Aug-05 10:46N 55°00' W 005°13'518.7
2018-Aug-05 10:30N 54°58' W 005°21'1018.4
2018-Aug-05 09:56N 54°54' W 005°38'615.3
2018-Aug-05 09:31N 54°51' W 005°48'0 0.1
2018-Aug-05 08:42N 54°51' W 005°48'0 0.0
2018-Aug-05 08:27N 54°51' W 005°48'4 7.9
2018-Aug-05 07:57N 54°53' W 005°42'918.8
2018-Aug-05 07:30N 54°57' W 005°29'918.3
2018-Aug-05 07:00N 55°01' W 005°15'814.5
2018-Aug-05 06:28N 54°58' W 005°02'1 1.1
2018-Aug-05 05:59N 54°58' W 005°01'0 0.0
2018-Aug-05 05:27N 54°58' W 005°01'0 0.0
2018-Aug-05 04:51N 54°58' W 005°01'0 0.0
2018-Aug-05 04:25N 54°58' W 005°01'0 0.0
2018-Aug-05 03:43N 54°58' W 005°01'0 0.0
2018-Aug-05 02:56N 54°58' W 005°01'0 0.0
2018-Aug-05 02:05N 54°58' W 005°01'0 0.0
2018-Aug-05 01:41N 54°58' W 005°01'0 0.0
2018-Aug-05 01:29N 54°58' W 005°01'0 0.0
2018-Aug-05 00:56N 54°58' W 005°01'0 0.0
2018-Aug-04 22:28N 54°58' W 005°01'0 0.0
2018-Aug-04 21:59N 54°58' W 005°01'0 0.0
2018-Aug-04 21:22N 54°58' W 005°01'7 7.1
2018-Aug-04 20:24N 55°01' W 005°11'921.3
2018-Aug-04 20:00N 54°57' W 005°25'1020.3
2018-Aug-04 19:31N 54°54' W 005°41'5 9.3
2018-Aug-04 18:59N 54°51' W 005°48'0 0.0
2018-Aug-04 18:17N 54°51' W 005°48'0 0.0
2018-Aug-04 17:59N 54°51' W 005°48'0 0.0
2018-Aug-04 17:29N 54°51' W 005°48'3 6.7
2018-Aug-04 17:00N 54°53' W 005°43'1019.2
2018-Aug-04 16:29N 54°57' W 005°28'  

Dump ship's entire track history